createdAt,value
2017-05-11T00:00:32.644Z,0
2017-05-11T00:01:32.673Z,0
2017-05-11T00:02:33.020Z,0
2017-05-11T00:03:32.995Z,0
2017-05-11T00:04:32.761Z,0
2017-05-11T00:05:32.158Z,0
2017-05-11T00:06:32.810Z,0
2017-05-11T00:07:33.163Z,0
2017-05-11T00:08:33.071Z,0
2017-05-11T00:09:33.201Z,0
2017-05-11T00:10:33.242Z,0
2017-05-11T00:11:32.981Z,0
2017-05-11T00:12:33.300Z,0
2017-05-11T00:13:33.260Z,0
2017-05-11T00:14:33.349Z,0
2017-05-11T00:15:33.378Z,0
2017-05-11T00:16:33.406Z,0
2017-05-11T00:17:33.119Z,0
2017-05-11T00:18:33.404Z,0
2017-05-11T00:19:33.173Z,0
2017-05-11T00:20:33.205Z,0
2017-05-11T00:21:33.543Z,0
2017-05-11T00:22:33.255Z,0
2017-05-11T00:23:33.535Z,0
2017-05-11T00:24:33.312Z,0
2017-05-11T00:25:33.034Z,0
2017-05-11T00:26:33.683Z,0
2017-05-11T00:27:33.398Z,0
2017-05-11T00:28:33.936Z,0
2017-05-11T00:29:33.774Z,0
2017-05-11T00:30:33.809Z,0
2017-05-11T00:31:33.828Z,0
2017-05-11T00:32:33.551Z,0
2017-05-11T00:33:34.141Z,0
2017-05-11T00:34:33.599Z,0
2017-05-11T00:35:33.313Z,0
2017-05-11T00:36:33.971Z,0
2017-05-11T00:37:33.982Z,0
2017-05-11T00:38:34.315Z,0
2017-05-11T00:39:33.748Z,0
2017-05-11T00:40:34.073Z,0
2017-05-11T00:41:34.099Z,0
2017-05-11T00:42:34.119Z,0
2017-05-11T00:43:34.412Z,0
2017-05-11T00:44:33.557Z,0
2017-05-11T00:45:33.910Z,0
2017-05-11T00:46:33.934Z,0
2017-05-11T00:47:34.283Z,0
2017-05-11T00:48:34.548Z,0
2017-05-11T00:49:34.330Z,0
2017-05-11T00:50:33.752Z,0
2017-05-11T00:51:34.073Z,0
2017-05-11T00:52:34.098Z,0
2017-05-11T00:53:34.692Z,0
2017-05-11T00:54:34.465Z,0
2017-05-11T00:55:34.181Z,0
2017-05-11T00:56:34.530Z,0
2017-05-11T00:57:34.230Z,0
2017-05-11T00:58:34.779Z,0
2017-05-11T00:59:34.600Z,0
2017-05-11T01:00:34.625Z,0
2017-05-11T01:01:34.346Z,0
2017-05-11T01:02:34.691Z,0
2017-05-11T01:03:35.004Z,0
2017-05-11T01:04:34.436Z,0
2017-05-11T01:05:34.453Z,0
2017-05-11T01:06:34.806Z,0
2017-05-11T01:07:34.827Z,0
2017-05-11T01:08:34.792Z,0
2017-05-11T01:09:34.572Z,0
2017-05-11T01:10:34.588Z,0
2017-05-11T01:11:34.623Z,0
2017-05-11T01:12:34.646Z,0
2017-05-11T01:13:35.243Z,0
2017-05-11T01:14:35.025Z,0
2017-05-11T01:15:35.047Z,0
2017-05-11T01:16:34.758Z,0
2017-05-11T01:17:35.101Z,0
2017-05-11T01:18:35.066Z,0
2017-05-11T01:19:35.164Z,0
2017-05-11T01:20:34.564Z,0
2017-05-11T01:21:35.214Z,0
2017-05-11T01:22:35.238Z,0
2017-05-11T01:23:35.238Z,0
2017-05-11T01:24:35.301Z,0
2017-05-11T01:25:35.012Z,0
2017-05-11T01:26:35.034Z,0
2017-05-11T01:27:34.754Z,0
2017-05-11T01:28:35.335Z,0
2017-05-11T01:29:35.121Z,0
2017-05-11T01:30:34.834Z,0
2017-05-11T01:31:35.177Z,0
2017-05-11T01:32:35.534Z,0
2017-05-11T01:33:35.494Z,0
2017-05-11T01:34:35.256Z,0
2017-05-11T01:35:35.293Z,0
2017-05-11T01:36:35.318Z,0
2017-05-11T01:37:35.655Z,0
2017-05-11T01:38:35.876Z,0
2017-05-11T01:39:35.713Z,0
2017-05-11T01:40:35.424Z,0
2017-05-11T01:41:34.834Z,0
2017-05-11T01:42:35.175Z,0
2017-05-11T01:43:36.059Z,0
2017-05-11T01:44:35.859Z,0
2017-05-11T01:45:35.884Z,0
2017-05-11T01:46:35.597Z,0
2017-05-11T01:47:35.623Z,0
2017-05-11T01:48:35.899Z,0
2017-05-11T01:49:35.671Z,0
2017-05-11T01:50:36.017Z,0
2017-05-11T01:51:35.419Z,0
2017-05-11T01:52:35.457Z,0
2017-05-11T01:53:35.730Z,0
2017-05-11T01:54:35.816Z,0
2017-05-11T01:55:35.848Z,0
2017-05-11T01:56:35.873Z,0
2017-05-11T01:57:35.898Z,0
2017-05-11T01:58:36.491Z,0
2017-05-11T01:59:36.268Z,0
2017-05-11T02:00:36.292Z,0
2017-05-11T02:01:36.009Z,0
2017-05-11T02:02:36.038Z,0
2017-05-11T02:03:36.318Z,0
2017-05-11T02:04:36.411Z,0
2017-05-11T02:05:36.437Z,0
2017-05-11T02:06:36.153Z,0
2017-05-11T02:07:36.179Z,0
2017-05-11T02:08:36.414Z,0
2017-05-11T02:09:36.544Z,0
2017-05-11T02:10:36.568Z,0
2017-05-11T02:11:35.985Z,0
2017-05-11T02:12:36.630Z,0
2017-05-11T02:13:36.537Z,0
2017-05-11T02:14:36.375Z,0
2017-05-11T02:15:36.700Z,0
2017-05-11T02:16:36.745Z,0
2017-05-11T02:17:36.776Z,0
2017-05-11T02:18:36.999Z,0
2017-05-11T02:19:36.824Z,0
2017-05-11T02:20:36.527Z,0
2017-05-11T02:21:36.565Z,0
2017-05-11T02:22:36.638Z,0
2017-05-11T02:23:36.930Z,0
2017-05-11T02:24:36.587Z,0
2017-05-11T02:25:36.676Z,0
2017-05-11T02:26:36.699Z,0
2017-05-11T02:27:37.046Z,0
2017-05-11T02:28:36.130Z,0
2017-05-11T02:29:37.304Z,0
2017-05-11T02:30:36.503Z,0
2017-05-11T02:31:36.540Z,0
2017-05-11T02:32:36.881Z,0
2017-05-11T02:33:36.885Z,0
2017-05-11T02:34:37.179Z,0
2017-05-11T02:35:37.264Z,0
2017-05-11T02:36:36.980Z,0
2017-05-11T02:37:36.698Z,0
2017-05-11T02:38:37.040Z,0
2017-05-11T02:39:37.627Z,0
2017-05-11T02:40:36.779Z,0
2017-05-11T02:41:37.120Z,0
2017-05-11T02:42:36.845Z,0
2017-05-11T02:43:37.187Z,0
2017-05-11T02:44:37.087Z,0
2017-05-11T02:45:36.961Z,0
2017-05-11T02:46:37.253Z,0
2017-05-11T02:47:37.598Z,0
2017-05-11T02:48:37.314Z,0
2017-05-11T02:49:37.591Z,0
2017-05-11T02:50:37.368Z,0
2017-05-11T02:51:37.087Z,0
2017-05-11T02:52:37.738Z,0
2017-05-11T02:53:37.454Z,0
2017-05-11T02:54:37.727Z,0
2017-05-11T02:55:37.195Z,0
2017-05-11T02:56:37.535Z,0
2017-05-11T02:57:37.561Z,0
2017-05-11T02:58:37.898Z,0
2017-05-11T02:59:37.866Z,0
2017-05-11T03:00:37.647Z,0
2017-05-11T03:01:37.988Z,0
2017-05-11T03:02:38.018Z,0
2017-05-11T03:03:37.410Z,0
2017-05-11T03:04:37.695Z,0
2017-05-11T03:05:38.099Z,0
2017-05-11T03:06:38.120Z,0
2017-05-11T03:07:38.165Z,0
2017-05-11T03:08:37.857Z,0
2017-05-11T03:09:38.150Z,0
2017-05-11T03:10:37.931Z,0
2017-05-11T03:11:38.264Z,0
2017-05-11T03:12:37.978Z,0
2017-05-11T03:13:38.321Z,0
2017-05-11T03:14:38.602Z,0
2017-05-11T03:15:37.746Z,0
2017-05-11T03:16:38.400Z,0
2017-05-11T03:17:38.113Z,0
2017-05-11T03:18:37.826Z,0
2017-05-11T03:19:38.690Z,0
2017-05-11T03:20:38.209Z,0
2017-05-11T03:21:38.540Z,0
2017-05-11T03:22:37.948Z,0
2017-05-11T03:23:38.281Z,0
2017-05-11T03:24:38.506Z,0
2017-05-11T03:25:38.663Z,0
2017-05-11T03:26:38.679Z,0
2017-05-11T03:27:38.078Z,0
2017-05-11T03:28:38.112Z,0
2017-05-11T03:29:38.389Z,0
2017-05-11T03:30:38.472Z,0
2017-05-11T03:31:37.883Z,0
2017-05-11T03:32:38.580Z,0
2017-05-11T03:33:38.874Z,0
2017-05-11T03:34:38.779Z,0
2017-05-11T03:35:38.923Z,0
2017-05-11T03:36:38.328Z,0
2017-05-11T03:37:38.664Z,0
2017-05-11T03:38:38.694Z,0
2017-05-11T03:39:39.290Z,0
2017-05-11T03:40:39.071Z,0
2017-05-11T03:41:38.775Z,0
2017-05-11T03:42:38.817Z,0
2017-05-11T03:43:38.842Z,0
2017-05-11T03:44:39.422Z,0
2017-05-11T03:45:38.575Z,0
2017-05-11T03:46:39.228Z,0
2017-05-11T03:47:38.952Z,0
2017-05-11T03:48:39.289Z,0
2017-05-11T03:49:38.943Z,0
2017-05-11T03:50:39.031Z,0
2017-05-11T03:51:39.415Z,0
2017-05-11T03:52:39.393Z,0
2017-05-11T03:53:39.417Z,0
2017-05-11T03:54:39.706Z,0
2017-05-11T03:55:39.478Z,0
2017-05-11T03:56:39.207Z,0
2017-05-11T03:57:39.224Z,0
2017-05-11T03:58:39.253Z,0
2017-05-11T03:59:39.529Z,0
2017-05-11T04:00:39.622Z,0
2017-05-11T04:01:39.639Z,0
2017-05-11T04:02:39.364Z,0
2017-05-11T04:03:39.697Z,0
2017-05-11T04:04:39.619Z,0
2017-05-11T04:05:39.446Z,0
2017-05-11T04:06:39.471Z,0
2017-05-11T04:07:39.812Z,0
2017-05-11T04:08:39.569Z,0
2017-05-11T04:09:39.493Z,0
2017-05-11T04:10:39.930Z,0
2017-05-11T04:11:39.603Z,0
2017-05-11T04:12:39.351Z,0
2017-05-11T04:13:39.973Z,0
2017-05-11T04:14:40.261Z,0
2017-05-11T04:15:39.098Z,0
2017-05-11T04:16:39.431Z,0
2017-05-11T04:17:40.085Z,0
2017-05-11T04:18:40.109Z,0
2017-05-11T04:19:39.456Z,0
2017-05-11T04:20:39.230Z,0
2017-05-11T04:21:40.196Z,0
2017-05-11T04:22:40.228Z,0
2017-05-11T04:23:40.256Z,0
2017-05-11T04:24:40.529Z,0
2017-05-11T04:25:40.309Z,0
2017-05-11T04:26:40.066Z,0
2017-05-11T04:27:40.369Z,0
2017-05-11T04:28:40.390Z,0
2017-05-11T04:29:40.677Z,0
2017-05-11T04:30:40.133Z,0
2017-05-11T04:31:40.162Z,0
2017-05-11T04:32:40.507Z,0
2017-05-11T04:33:40.536Z,0
2017-05-11T04:34:40.442Z,0
2017-05-11T04:35:40.277Z,0
2017-05-11T04:36:40.305Z,0
2017-05-11T04:37:40.328Z,0
2017-05-11T04:38:40.357Z,0
2017-05-11T04:39:40.269Z,0
2017-05-11T04:40:40.098Z,0
2017-05-11T04:41:40.127Z,5
2017-05-11T04:42:40.168Z,5
2017-05-11T04:43:40.812Z,5
2017-05-11T04:44:40.780Z,5
2017-05-11T04:45:40.246Z,5
2017-05-11T04:46:40.578Z,5
2017-05-11T04:47:40.603Z,5
2017-05-11T04:48:40.634Z,5
2017-05-11T04:49:41.233Z,5
2017-05-11T04:50:40.998Z,5
2017-05-11T04:51:40.749Z,10
2017-05-11T04:52:40.430Z,10
2017-05-11T04:53:41.079Z,10
2017-05-11T04:54:40.172Z,10
2017-05-11T04:55:41.390Z,10
2017-05-11T04:56:41.167Z,10
2017-05-11T04:57:41.192Z,10
2017-05-11T04:58:41.228Z,10
2017-05-11T04:59:41.289Z,15
2017-05-11T05:00:41.206Z,15
2017-05-11T05:01:40.985Z,15
2017-05-11T05:02:41.019Z,20
2017-05-11T05:03:41.045Z,20
2017-05-11T05:04:41.073Z,20
2017-05-11T05:05:41.713Z,15
2017-05-11T05:06:41.129Z,15
2017-05-11T05:07:40.530Z,10
2017-05-11T05:08:41.188Z,5
2017-05-11T05:09:41.528Z,5
2017-05-11T05:10:41.489Z,5
2017-05-11T05:11:41.259Z,5
2017-05-11T05:12:41.299Z,5
2017-05-11T05:13:41.639Z,0
2017-05-11T05:14:41.340Z,0
2017-05-11T05:15:41.573Z,0
2017-05-11T05:16:41.447Z,0
2017-05-11T05:17:41.438Z,0
2017-05-11T05:18:41.508Z,0
2017-05-11T05:19:41.496Z,0
2017-05-11T05:20:41.409Z,0
2017-05-11T05:21:41.229Z,0
2017-05-11T05:22:41.258Z,5
2017-05-11T05:23:41.592Z,5
2017-05-11T05:24:41.620Z,5
2017-05-11T05:25:42.265Z,5
2017-05-11T05:26:41.685Z,5
2017-05-11T05:27:41.702Z,5
2017-05-11T05:28:41.423Z,5
2017-05-11T05:29:41.448Z,5
2017-05-11T05:30:41.669Z,5
2017-05-11T05:31:41.817Z,10
2017-05-11T05:32:42.166Z,10
2017-05-11T05:33:41.563Z,10
2017-05-11T05:34:42.213Z,10
2017-05-11T05:35:41.805Z,10
2017-05-11T05:36:41.957Z,10
2017-05-11T05:37:41.675Z,10
2017-05-11T05:38:42.016Z,10
2017-05-11T05:39:42.361Z,10
2017-05-11T05:40:42.571Z,10
2017-05-11T05:41:42.414Z,10
2017-05-11T05:42:41.814Z,10
2017-05-11T05:43:42.468Z,10
2017-05-11T05:44:41.864Z,10
2017-05-11T05:45:42.454Z,10
2017-05-11T05:46:42.241Z,10
2017-05-11T05:47:42.582Z,10
2017-05-11T05:48:42.295Z,10
2017-05-11T05:49:42.633Z,10
2017-05-11T05:50:42.596Z,10
2017-05-11T05:51:42.684Z,10
2017-05-11T05:52:42.406Z,10
2017-05-11T05:53:42.738Z,10
2017-05-11T05:54:42.455Z,10
2017-05-11T05:55:43.041Z,10
2017-05-11T05:56:42.512Z,15
2017-05-11T05:57:42.541Z,15
2017-05-11T05:58:42.883Z,15
2017-05-11T05:59:42.587Z,15
2017-05-11T06:00:43.132Z,20
2017-05-11T06:01:42.972Z,20
2017-05-11T06:02:42.681Z,15
2017-05-11T06:03:43.026Z,15
2017-05-11T06:04:43.047Z,15
2017-05-11T06:05:43.030Z,10
2017-05-11T06:06:43.728Z,10
2017-05-11T06:07:43.142Z,10
2017-05-11T06:08:43.285Z,10
2017-05-11T06:09:42.876Z,10
2017-05-11T06:10:42.835Z,15
2017-05-11T06:11:43.241Z,15
2017-05-11T06:12:42.956Z,15
2017-05-11T06:13:42.717Z,15
2017-05-11T06:14:43.326Z,15
2017-05-11T06:15:43.247Z,15
2017-05-11T06:16:43.068Z,15
2017-05-11T06:17:42.789Z,20
2017-05-11T06:18:43.430Z,20
2017-05-11T06:19:43.458Z,20
2017-05-11T06:20:43.739Z,20
2017-05-11T06:21:43.755Z,20
2017-05-11T06:22:43.813Z,20
2017-05-11T06:23:43.267Z,20
2017-05-11T06:24:43.307Z,20
2017-05-11T06:25:44.472Z,20
2017-05-11T06:26:43.360Z,20
2017-05-11T06:27:44.156Z,20
2017-05-11T06:28:43.956Z,20
2017-05-11T06:29:44.243Z,20
2017-05-11T06:30:44.735Z,25
2017-05-11T06:32:58.876Z,20
2017-05-11T06:33:43.829Z,20
2017-05-11T06:34:44.037Z,20
2017-05-11T06:35:58.338Z,20
2017-05-11T06:36:44.212Z,20
2017-05-11T06:37:43.896Z,20
2017-05-11T06:38:44.214Z,20
2017-05-11T06:39:43.768Z,15
2017-05-11T06:40:44.518Z,15
2017-05-11T06:41:44.063Z,20
2017-05-11T06:42:43.796Z,20
2017-05-11T06:43:44.064Z,20
2017-05-11T06:44:44.158Z,20
2017-05-11T06:45:43.914Z,20
2017-05-11T06:46:44.502Z,20
2017-05-11T06:47:44.244Z,20
2017-05-11T06:48:44.265Z,25
2017-05-11T06:49:43.985Z,25
2017-05-11T06:50:44.013Z,25
2017-05-11T06:51:44.631Z,25
2017-05-11T06:52:44.383Z,25
2017-05-11T06:53:44.095Z,30
2017-05-11T06:54:44.647Z,30
2017-05-11T06:55:44.197Z,30
2017-05-11T06:56:44.432Z,30
2017-05-11T06:57:44.207Z,25
2017-05-11T06:58:43.925Z,25
2017-05-11T06:59:44.583Z,25
2017-05-11T07:00:43.981Z,30
2017-05-11T07:01:44.894Z,30
2017-05-11T07:02:44.656Z,25
2017-05-11T07:03:44.685Z,25
2017-05-11T07:04:44.416Z,25
2017-05-11T07:05:44.434Z,25
2017-05-11T07:06:45.029Z,25
2017-05-11T07:07:44.790Z,25
2017-05-11T07:08:44.516Z,25
2017-05-11T07:09:44.545Z,25
2017-05-11T07:10:44.889Z,30
2017-05-11T07:11:44.798Z,30
2017-05-11T07:12:44.617Z,30
2017-05-11T07:13:44.968Z,30
2017-05-11T07:14:45.009Z,25
2017-05-11T07:15:44.402Z,25
2017-05-11T07:16:44.934Z,25
2017-05-11T07:17:44.766Z,30
2017-05-11T07:18:44.484Z,30
2017-05-11T07:19:44.819Z,30
2017-05-11T07:20:44.858Z,30
2017-05-11T07:21:44.821Z,30
2017-05-11T07:22:44.911Z,35
2017-05-11T07:23:44.935Z,30
2017-05-11T07:24:44.701Z,30
2017-05-11T07:25:44.397Z,30
2017-05-11T07:26:45.577Z,30
2017-05-11T07:27:45.050Z,30
2017-05-11T07:28:45.075Z,30
2017-05-11T07:29:45.104Z,25
2017-05-11T07:30:45.132Z,30
2017-05-11T07:31:45.726Z,30
2017-05-11T07:32:45.494Z,35
2017-05-11T07:33:45.531Z,35
2017-05-11T07:34:45.243Z,35
2017-05-11T07:35:45.269Z,35
2017-05-11T07:36:45.510Z,40
2017-05-11T07:37:45.655Z,40
2017-05-11T07:38:45.366Z,35
2017-05-11T07:39:45.696Z,35
2017-05-11T07:40:45.413Z,35
2017-05-11T07:41:46.005Z,40
2017-05-11T07:42:45.779Z,40
2017-05-11T07:43:45.187Z,40
2017-05-11T07:44:45.839Z,40
2017-05-11T07:45:45.557Z,40
2017-05-11T07:46:45.842Z,40
2017-05-11T07:47:45.611Z,40
2017-05-11T07:48:45.638Z,40
2017-05-11T07:49:45.668Z,40
2017-05-11T07:50:45.704Z,40
2017-05-11T07:51:46.293Z,40
2017-05-11T07:52:46.066Z,40
2017-05-11T07:53:46.090Z,40
2017-05-11T07:54:46.121Z,40
2017-05-11T07:55:46.152Z,40
2017-05-11T07:56:45.746Z,35
2017-05-11T07:57:45.902Z,30
2017-05-11T07:58:45.923Z,30
2017-05-11T07:59:46.264Z,30
2017-05-11T08:00:45.672Z,35
2017-05-11T08:01:46.258Z,35
2017-05-11T08:02:46.042Z,40
2017-05-11T08:03:46.380Z,40
2017-05-11T08:04:46.406Z,35
2017-05-11T08:05:45.807Z,40
2017-05-11T08:06:46.117Z,40
2017-05-11T08:07:46.174Z,45
2017-05-11T08:08:46.206Z,45
2017-05-11T08:09:46.233Z,45
2017-05-11T08:10:46.567Z,45
2017-05-11T08:11:46.544Z,40
2017-05-11T08:12:45.685Z,30
2017-05-11T08:13:46.658Z,25
2017-05-11T08:14:46.394Z,25
2017-05-11T08:15:46.400Z,25
2017-05-11T08:16:47.001Z,20
2017-05-11T08:17:46.465Z,20
2017-05-11T08:18:46.801Z,25
2017-05-11T08:19:46.515Z,30
2017-05-11T08:20:46.540Z,40
2017-05-11T08:21:47.132Z,40
2017-05-11T08:22:46.919Z,40
2017-05-11T08:23:46.937Z,40
2017-05-11T08:24:46.347Z,50
2017-05-11T08:25:46.988Z,50
2017-05-11T08:26:46.653Z,55
2017-05-11T08:27:46.436Z,55
2017-05-11T08:28:47.081Z,55
2017-05-11T08:29:46.491Z,55
2017-05-11T08:30:46.819Z,50
2017-05-11T08:31:47.109Z,45
2017-05-11T08:32:46.884Z,40
2017-05-11T08:33:46.909Z,30
2017-05-11T08:34:46.930Z,30
2017-05-11T08:35:46.968Z,35
2017-05-11T08:36:47.248Z,35
2017-05-11T08:37:47.020Z,35
2017-05-11T08:38:47.064Z,30
2017-05-11T08:39:47.081Z,35
2017-05-11T08:40:47.120Z,40
2017-05-11T08:41:47.384Z,35
2017-05-11T08:42:47.492Z,35
2017-05-11T08:43:47.518Z,30
2017-05-11T08:44:47.534Z,30
2017-05-11T08:45:47.563Z,35
2017-05-11T08:46:47.790Z,35
2017-05-11T08:47:47.313Z,35
2017-05-11T08:48:47.352Z,40
2017-05-11T08:49:47.358Z,45
2017-05-11T08:50:47.718Z,45
2017-05-11T08:51:47.676Z,45
2017-05-11T08:52:47.762Z,40
2017-05-11T08:53:47.172Z,40
2017-05-11T08:54:47.533Z,45
2017-05-11T08:55:47.534Z,45
2017-05-11T08:56:48.135Z,45
2017-05-11T08:57:47.284Z,45
2017-05-11T08:58:47.004Z,50
2017-05-11T08:59:47.339Z,50
2017-05-11T09:00:47.678Z,50
2017-05-11T09:01:48.233Z,50
2017-05-11T09:02:48.048Z,50
2017-05-11T09:03:48.077Z,55
2017-05-11T09:04:47.789Z,55
2017-05-11T09:05:47.830Z,55
2017-05-11T09:06:48.474Z,55
2017-05-11T09:07:47.895Z,55
2017-05-11T09:08:47.908Z,55
2017-05-11T09:09:48.240Z,55
2017-05-11T09:10:48.261Z,55
2017-05-11T09:11:48.509Z,55
2017-05-11T09:12:48.015Z,60
2017-05-11T09:13:48.359Z,60
2017-05-11T09:14:48.391Z,60
2017-05-11T09:15:48.118Z,60
2017-05-11T09:16:48.026Z,60
2017-05-11T09:17:48.477Z,60
2017-05-11T09:18:48.499Z,55
2017-05-11T09:19:48.532Z,55
2017-05-11T09:20:48.573Z,60
2017-05-11T09:21:48.483Z,60
2017-05-11T09:22:47.997Z,60
2017-05-11T09:23:48.332Z,60
2017-05-11T09:24:48.676Z,60
2017-05-11T09:25:48.396Z,55
2017-05-11T09:26:48.621Z,50
2017-05-11T09:27:48.453Z,45
2017-05-11T09:28:48.163Z,45
2017-05-11T09:29:48.831Z,55
2017-05-11T09:30:48.228Z,60
2017-05-11T09:31:48.777Z,65
2017-05-11T09:32:48.278Z,70
2017-05-11T09:33:48.307Z,70
2017-05-11T09:34:48.651Z,75
2017-05-11T09:35:48.995Z,75
2017-05-11T09:36:48.597Z,80
2017-05-11T09:37:48.734Z,75
2017-05-11T09:38:48.771Z,75
2017-05-11T09:39:49.104Z,75
2017-05-11T09:40:49.149Z,75
2017-05-11T09:41:49.109Z,80
2017-05-11T09:42:49.193Z,80
2017-05-11T09:43:48.914Z,75
2017-05-11T09:44:48.947Z,70
2017-05-11T09:45:49.281Z,65
2017-05-11T09:46:48.880Z,70
2017-05-11T09:47:49.354Z,75
2017-05-11T09:48:48.427Z,75
2017-05-11T09:50:04.002Z,65
2017-05-11T09:50:49.428Z,65
2017-05-11T09:51:49.700Z,70
2017-05-11T09:52:49.494Z,70
2017-05-11T09:53:49.206Z,70
2017-05-11T09:54:49.226Z,70
2017-05-11T09:55:48.943Z,75
2017-05-11T09:56:49.224Z,65
2017-05-11T09:57:49.001Z,65
2017-05-11T09:58:49.363Z,60
2017-05-11T09:59:49.691Z,55
2017-05-11T10:00:49.416Z,45
2017-05-11T10:01:49.631Z,45
2017-05-11T10:02:49.777Z,40
2017-05-11T10:03:49.494Z,45
2017-05-11T10:04:49.834Z,50
2017-05-11T10:05:49.859Z,60
2017-05-11T10:06:50.010Z,55
2017-05-11T10:07:49.945Z,60
2017-05-11T10:08:49.982Z,65
2017-05-11T10:09:49.658Z,65
2017-05-11T10:10:49.685Z,65
2017-05-11T10:11:50.284Z,60
2017-05-11T10:12:49.753Z,65
2017-05-11T10:13:50.089Z,60
2017-05-11T10:14:49.809Z,70
2017-05-11T10:15:49.838Z,75
2017-05-11T10:16:49.868Z,75
2017-05-11T10:17:50.372Z,70
2017-05-11T10:18:49.921Z,70
2017-05-11T10:19:49.660Z,65
2017-05-11T10:20:50.291Z,55
2017-05-11T10:21:50.014Z,50
2017-05-11T10:22:50.288Z,55
2017-05-11T10:23:50.381Z,55
2017-05-11T10:24:50.410Z,50
2017-05-11T10:25:49.815Z,60
2017-05-11T10:26:50.930Z,60
2017-05-11T10:27:50.464Z,60
2017-05-11T10:28:50.525Z,55
2017-05-11T10:29:49.933Z,55
2017-05-11T10:30:50.594Z,60
2017-05-11T10:31:50.307Z,55
2017-05-11T10:32:50.275Z,60
2017-05-11T10:33:50.048Z,70
2017-05-11T10:34:50.406Z,70
2017-05-11T10:35:50.418Z,65
2017-05-11T10:36:50.446Z,60
2017-05-11T10:37:50.990Z,60
2017-05-11T10:38:50.851Z,60
2017-05-11T10:39:50.534Z,60
2017-05-11T10:40:50.873Z,60
2017-05-11T10:41:50.906Z,60
2017-05-11T10:42:51.187Z,60
2017-05-11T10:43:50.653Z,60
2017-05-11T10:44:50.997Z,60
2017-05-11T10:45:51.025Z,60
2017-05-11T10:46:50.110Z,60
2017-05-11T10:47:50.964Z,60
2017-05-11T10:48:51.104Z,60
2017-05-11T10:49:51.148Z,60
2017-05-11T10:50:50.854Z,60
2017-05-11T10:51:51.198Z,65
2017-05-11T10:52:51.167Z,65
2017-05-11T10:53:51.259Z,65
2017-05-11T10:54:50.973Z,65
2017-05-11T10:55:51.009Z,60
2017-05-11T10:56:51.025Z,50
2017-05-11T10:57:51.564Z,50
2017-05-11T10:58:51.087Z,45
2017-05-11T10:59:51.115Z,45
2017-05-11T11:00:51.460Z,45
2017-05-11T11:01:51.745Z,55
2017-05-11T11:02:51.715Z,50
2017-05-11T11:03:51.542Z,55
2017-05-11T11:04:51.260Z,55
2017-05-11T11:05:51.613Z,55
2017-05-11T11:06:51.321Z,55
2017-05-11T11:07:51.923Z,60
2017-05-11T11:08:51.914Z,70
2017-05-11T11:09:51.416Z,80
2017-05-11T11:10:51.442Z,85
2017-05-11T11:11:51.458Z,90
2017-05-11T11:12:52.015Z,100
2017-05-11T11:13:51.531Z,105
2017-05-11T11:14:51.551Z,105
2017-05-11T11:15:51.598Z,110
2017-05-11T11:16:51.613Z,110
2017-05-11T11:17:52.166Z,115
2017-05-11T11:18:51.677Z,110
2017-05-11T11:19:51.387Z,115
2017-05-11T11:20:52.086Z,115
2017-05-11T11:21:51.792Z,120
2017-05-11T11:22:52.046Z,115
2017-05-11T11:23:51.825Z,115
2017-05-11T11:24:51.847Z,110
2017-05-11T11:25:52.186Z,105
2017-05-11T11:26:52.234Z,110
2017-05-11T11:27:52.446Z,120
2017-05-11T11:28:51.655Z,120
2017-05-11T11:29:52.310Z,120
2017-05-11T11:30:52.020Z,125
2017-05-11T11:31:52.048Z,150
2017-05-11T11:32:52.641Z,175
2017-05-11T11:33:52.410Z,180
2017-05-11T11:34:52.451Z,190
2017-05-11T11:35:52.168Z,200
2017-05-11T11:36:52.508Z,200
2017-05-11T11:37:52.740Z,190
2017-05-11T11:38:52.569Z,200
2017-05-11T11:39:52.288Z,215
2017-05-11T11:40:52.219Z,240
2017-05-11T11:41:52.885Z,250
2017-05-11T11:42:53.605Z,235
2017-05-11T11:43:52.083Z,245
2017-05-11T11:45:21.913Z,230
2017-05-11T11:45:52.157Z,220
2017-05-11T11:46:53.040Z,240
2017-05-11T11:47:53.037Z,230
2017-05-11T11:48:52.554Z,200
2017-05-11T11:49:52.939Z,205
2017-05-11T11:50:52.623Z,165
2017-05-11T11:52:53.181Z,120
2017-05-11T11:53:52.716Z,145
2017-05-11T11:54:52.739Z,180
2017-05-11T11:55:53.100Z,130
2017-05-11T11:56:52.800Z,160
2017-05-11T11:57:53.031Z,135
2017-05-11T11:58:52.586Z,105
2017-05-11T11:59:52.590Z,70
2017-05-11T12:00:53.240Z,65
2017-05-11T12:01:52.643Z,80
2017-05-11T12:02:53.236Z,95
2017-05-11T12:03:53.330Z,110
2017-05-11T12:04:52.730Z,175
2017-05-11T12:05:52.763Z,105
2017-05-11T12:06:52.796Z,110
2017-05-11T12:07:53.648Z,135
2017-05-11T12:08:53.165Z,130
2017-05-11T12:09:53.509Z,130
2017-05-11T12:10:53.548Z,95
2017-05-11T12:11:53.252Z,125
2017-05-11T12:12:53.487Z,200
2017-05-11T12:13:53.648Z,300
2017-05-11T12:14:53.662Z,80
2017-05-11T12:15:53.691Z,145
2017-05-11T12:16:53.422Z,125
2017-05-11T12:17:53.957Z,115
2017-05-11T12:18:53.475Z,110
2017-05-11T12:19:53.501Z,85
2017-05-11T12:20:53.851Z,230
2017-05-11T12:21:54.103Z,165
2017-05-11T12:22:53.523Z,150
2017-05-11T12:23:54.197Z,85
2017-05-11T12:24:53.662Z,95
2017-05-11T12:25:53.685Z,100
2017-05-11T12:26:53.423Z,120
2017-05-11T12:27:54.008Z,130
2017-05-11T12:28:54.101Z,100
2017-05-11T12:29:53.811Z,90
2017-05-11T12:30:53.842Z,80
2017-05-11T12:31:54.193Z,75
2017-05-11T12:32:54.157Z,70
2017-05-11T12:33:53.944Z,65
2017-05-11T12:34:53.957Z,60
2017-05-11T12:35:53.989Z,60
2017-05-11T12:36:54.024Z,60
2017-05-11T12:37:54.311Z,70
2017-05-11T12:38:54.087Z,65
2017-05-11T12:39:54.107Z,55
2017-05-11T12:40:53.508Z,60
2017-05-11T12:41:54.213Z,65
2017-05-11T12:42:54.718Z,65
2017-05-11T12:43:54.243Z,75
2017-05-11T12:44:54.273Z,80
2017-05-11T12:45:54.605Z,80
2017-05-11T12:46:54.646Z,80
2017-05-11T12:47:54.870Z,80
2017-05-11T12:48:54.712Z,85
2017-05-11T12:49:54.409Z,85
2017-05-11T12:50:54.757Z,95
2017-05-11T12:51:54.784Z,85
2017-05-11T12:52:54.195Z,80
2017-05-11T12:53:54.732Z,90
2017-05-11T12:54:54.556Z,250
2017-05-11T12:55:54.600Z,235
2017-05-11T12:56:54.938Z,265
2017-05-11T12:57:55.014Z,335
2017-05-11T12:58:54.947Z,310
2017-05-11T12:59:54.715Z,310
2017-05-11T13:00:54.741Z,315
2017-05-11T13:01:54.773Z,200
2017-05-11T13:02:55.127Z,155
2017-05-11T13:03:55.400Z,180
2017-05-11T13:04:55.188Z,115
2017-05-11T13:05:54.900Z,135
2017-05-11T13:06:54.926Z,100
2017-05-11T13:07:55.267Z,100
2017-05-11T13:08:55.504Z,95
2017-05-11T13:09:55.021Z,80
2017-05-11T13:10:55.047Z,380
2017-05-11T13:11:55.394Z,265
2017-05-11T13:12:55.111Z,115
2017-05-11T13:13:55.078Z,330
2017-05-11T13:14:55.227Z,140
2017-05-11T13:15:55.520Z,250
2017-05-11T13:16:55.232Z,125
2017-05-11T13:17:55.573Z,135
2017-05-11T13:18:55.803Z,120
2017-05-11T13:19:55.323Z,95
2017-05-11T13:20:55.352Z,80
2017-05-11T13:21:55.389Z,85
2017-05-11T13:22:55.418Z,70
2017-05-11T13:23:55.958Z,50
2017-05-11T13:24:55.795Z,45
2017-05-11T13:25:55.192Z,40
2017-05-11T13:26:55.540Z,35
2017-05-11T13:27:55.881Z,50
2017-05-11T13:28:56.163Z,65
2017-05-11T13:29:55.630Z,65
2017-05-11T13:30:55.660Z,60
2017-05-11T13:31:55.693Z,60
2017-05-11T13:32:55.424Z,60
2017-05-11T13:33:56.253Z,60
2017-05-11T13:34:55.470Z,55
2017-05-11T13:35:55.815Z,55
2017-05-11T13:36:56.153Z,55
2017-05-11T13:37:54.932Z,80
2017-05-11T13:38:56.102Z,110
2017-05-11T13:39:56.242Z,155
2017-05-11T13:40:56.275Z,135
2017-05-11T13:41:55.988Z,135
2017-05-11T13:42:56.023Z,115
2017-05-11T13:43:55.945Z,90
2017-05-11T13:44:56.606Z,80
2017-05-11T13:45:56.120Z,80
2017-05-11T13:46:56.204Z,85
2017-05-11T13:47:56.486Z,85
2017-05-11T13:48:56.737Z,95
2017-05-11T13:49:56.555Z,100
2017-05-11T13:50:56.265Z,105
2017-05-11T13:51:56.287Z,105
2017-05-11T13:52:56.654Z,120
2017-05-11T13:54:56.386Z,135
2017-05-11T13:55:56.736Z,100
2017-05-11T13:56:56.757Z,60
2017-05-11T13:57:56.789Z,40
2017-05-11T13:58:56.445Z,35
2017-05-11T13:59:56.226Z,30
2017-05-11T14:00:56.879Z,25
2017-05-11T14:01:56.908Z,25
2017-05-11T14:02:56.941Z,25
2017-05-11T14:03:57.218Z,25
2017-05-11T14:04:57.026Z,30
2017-05-11T14:05:57.485Z,35
2017-05-11T14:06:56.762Z,25
2017-05-11T14:07:57.305Z,20
2017-05-11T14:08:56.798Z,15
2017-05-11T14:09:57.146Z,10
2017-05-11T14:10:56.864Z,10
2017-05-11T14:11:56.899Z,5
2017-05-11T14:12:57.704Z,5
2017-05-11T14:14:04.910Z,5
2017-05-11T14:14:57.752Z,5
2017-05-11T14:15:57.468Z,5
2017-05-11T14:16:57.611Z,5
2017-05-11T14:17:57.344Z,5
2017-05-11T14:18:57.104Z,5
2017-05-11T14:19:57.338Z,10
2017-05-11T14:20:57.166Z,10
2017-05-11T14:21:57.430Z,10
2017-05-11T14:22:57.448Z,10
2017-05-11T14:23:57.602Z,15
2017-05-11T14:24:57.481Z,20
2017-05-11T14:25:57.317Z,20
2017-05-11T14:26:57.343Z,25